Time;durP1;ratioP1;P1;durP2;ratioP2;P2;SDS_P1;SDS_P2;PMS_P1;PMS_P2;Temp;Humidity;BMP_temperature;BMP_pressure;BME280_temperature;BME280_humidity;BME280_pressure;Samples;Min_cycle;Max_cycle;Signal;HPM_P1;HPM_P2
2021/12/12 00:01:13;;;;;;;;;22.00;20.00;;;;;;;;5022973;28;45371;-65
2021/12/12 00:03:46;;;;;;;;;21.00;17.67;;;;;;;;5021878;28;45337;-65
2021/12/12 00:06:13;;;;;;;;;23.00;17.00;;;;;;;;5023156;28;45499;-65
2021/12/12 00:08:39;;;;;;;;;22.00;18.67;;;;;;;;5003803;28;48203;-65
2021/12/12 00:11:06;;;;;;;;;23.33;19.67;;;;;;;;5022803;28;45285;-65
2021/12/12 00:13:34;;;;;;;;;23.50;20.00;;;;;;;;5021406;28;45401;-65
2021/12/12 00:16:00;;;;;;;;;27.33;22.67;;;;;;;;5023056;28;45406;-66
2021/12/12 00:18:25;;;;;;;;;19.00;14.33;;;;;;;;5021929;28;45378;-65
2021/12/12 00:20:51;;;;;;;;;26.00;19.00;;;;;;;;5023961;28;45508;-65
2021/12/12 00:23:16;;;;;;;;;15.67;12.00;;;;;;;;5024194;28;45486;-65
2021/12/12 00:25:44;;;;;;;;;19.33;16.00;;;;;;;;5025560;28;45639;-65
2021/12/12 00:28:09;;;;;;;;;23.00;19.00;;;;;;;;5022514;28;48169;-65
2021/12/12 00:30:35;;;;;;;;;23.33;21.67;;;;;;;;5024670;28;45354;-65
2021/12/12 00:33:01;;;;;;;;;21.67;19.67;;;;;;;;5022928;28;45635;-65
2021/12/12 00:35:26;;;;;;;;;19.33;16.67;;;;;;;;5025824;28;45185;-65
2021/12/12 00:37:56;;;;;;;;;22.33;21.00;;;;;;;;5004862;28;46943;-65
2021/12/12 00:40:35;;;;;;;;;32.33;19.00;;;;;;;;5025111;28;45407;-65
2021/12/12 00:43:03;;;;;;;;;22.00;19.67;;;;;;;;5023938;28;45537;-65
2021/12/12 00:45:29;;;;;;;;;22.33;19.00;;;;;;;;5025367;28;45427;-65
2021/12/12 00:47:54;;;;;;;;;25.00;21.00;;;;;;;;5023844;28;45520;-65
2021/12/12 00:50:25;;;;;;;;;23.67;19.00;;;;;;;;5025321;28;45209;-65
2021/12/12 00:52:51;;;;;;;;;19.67;17.00;;;;;;;;5025074;28;45509;-66
2021/12/12 00:55:16;;;;;;;;;23.00;20.00;;;;;;;;5012798;28;45518;-65
2021/12/12 00:57:41;;;;;;;;;21.00;18.00;;;;;;;;5024457;28;45328;-65
2021/12/12 01:00:09;;;;;;;;;18.00;18.00;;;;;;;;5025294;28;45320;-65
2021/12/12 01:02:34;;;;;;;;;22.00;20.67;;;;;;;;5024901;28;45667;-66
2021/12/12 01:05:00;;;;;;;;;17.67;16.33;;;;;;;;5025564;28;45570;-65
2021/12/12 01:07:28;;;;;;;;;18.33;16.33;;;;;;;;5024663;28;45435;-65
2021/12/12 01:09:56;;;;;;;;;17.33;14.00;;;;;;;;5006636;28;45250;-65
2021/12/12 01:12:25;;;;;;;;;18.00;15.67;;;;;;;;5024332;28;45403;-65
2021/12/12 01:14:53;;;;;;;;;26.00;17.33;;;;;;;;5007739;28;45943;-65
2021/12/12 01:17:23;;;;;;;;;19.00;13.33;;;;;;;;5024514;28;45416;-65
2021/12/12 01:19:54;;;;;;;;;14.67;14.33;;;;;;;;5023262;28;45366;-65
2021/12/12 01:22:25;;;;;;;;;14.67;13.67;;;;;;;;5024584;28;45272;-65
2021/12/12 01:24:52;;;;;;;;;17.33;13.33;;;;;;;;5016767;28;45347;-65
2021/12/12 01:27:18;;;;;;;;;18.00;13.33;;;;;;;;5024034;28;45368;-65
2021/12/12 01:29:43;;;;;;;;;17.00;14.00;;;;;;;;5024309;28;45390;-65
2021/12/12 01:32:12;;;;;;;;;15.00;15.00;;;;;;;;5024611;28;45264;-66
2021/12/12 01:34:38;;;;;;;;;14.33;13.33;;;;;;;;5021063;28;45383;-65
2021/12/12 01:39:49;;;;;;;;;18.67;13.33;;;;;;;;5021140;28;45405;-65
2021/12/12 01:42:17;;;;;;;;;12.67;11.00;;;;;;;;5023843;28;45413;-66
2021/12/12 01:44:50;;;;;;;;;18.67;13.00;;;;;;;;5025390;28;45197;-65
2021/12/12 01:47:18;;;;;;;;;16.67;14.67;;;;;;;;5022591;28;46312;-65
2021/12/12 01:49:45;;;;;;;;;16.00;12.67;;;;;;;;5024692;28;45536;-65
2021/12/12 01:52:12;;;;;;;;;13.00;13.00;;;;;;;;5022904;28;46006;-65
2021/12/12 01:54:44;;;;;;;;;20.00;14.00;;;;;;;;5019375;28;45451;-65
2021/12/12 01:57:12;;;;;;;;;13.00;8.33;;;;;;;;5021484;28;45471;-65
2021/12/12 01:59:38;;;;;;;;;14.67;14.67;;;;;;;;5023084;28;45481;-65
2021/12/12 02:02:24;;;;;;;;;14.33;11.67;;;;;;;;5024001;28;48113;-65
2021/12/12 02:04:54;;;;;;;;;11.67;11.00;;;;;;;;5024480;28;45248;-65
2021/12/12 02:07:25;;;;;;;;;11.00;11.00;;;;;;;;5023569;28;45452;-65
2021/12/12 02:09:51;;;;;;;;;12.00;9.00;;;;;;;;5001651;28;45470;-65
2021/12/12 02:12:18;;;;;;;;;11.00;10.67;;;;;;;;5005420;28;45261;-65
2021/12/12 02:14:44;;;;;;;;;7.67;7.33;;;;;;;;5006831;28;45585;-65
2021/12/12 02:17:19;;;;;;;;;12.33;12.33;;;;;;;;5023756;28;45536;-65
2021/12/12 02:20:04;;;;;;;;;9.00;9.00;;;;;;;;5023920;28;45270;-65
2021/12/12 02:35:54;;;;;;;;;13.00;10.33;;;;;;;;5023466;28;45398;-65
2021/12/12 02:38:24;;;;;;;;;9.00;8.33;;;;;;;;5022284;28;45623;-65
2021/12/12 02:40:52;;;;;;;;;12.33;10.00;;;;;;;;5004674;28;45486;-65
2021/12/12 02:43:19;;;;;;;;;10.00;7.67;;;;;;;;5022013;28;45386;-65
2021/12/12 02:45:45;;;;;;;;;13.33;10.00;;;;;;;;5023388;28;45308;-65
2021/12/12 02:48:16;;;;;;;;;11.33;8.00;;;;;;;;5021309;28;48340;-65
2021/12/12 02:50:43;;;;;;;;;8.00;7.00;;;;;;;;5005879;28;45683;-65
2021/12/12 02:53:14;;;;;;;;;10.00;8.33;;;;;;;;5023246;28;45465;-65
2021/12/12 02:55:41;;;;;;;;;11.67;9.33;;;;;;;;5015636;28;45370;-65
2021/12/12 02:58:08;;;;;;;;;7.00;7.00;;;;;;;;5022575;28;45425;-65
2021/12/12 03:00:36;;;;;;;;;12.33;8.00;;;;;;;;5023714;28;45300;-65
2021/12/12 03:03:02;;;;;;;;;8.00;6.67;;;;;;;;5023003;28;45335;-65
2021/12/12 03:05:29;;;;;;;;;9.00;8.00;;;;;;;;5023987;28;45365;-65
2021/12/12 03:07:54;;;;;;;;;10.33;8.00;;;;;;;;5022750;28;45724;-65
2021/12/12 03:10:23;;;;;;;;;9.00;7.00;;;;;;;;5022142;28;45343;-65
2021/12/12 03:12:49;;;;;;;;;8.33;6.00;;;;;;;;4999983;28;45478;-65
2021/12/12 03:15:16;;;;;;;;;6.67;6.33;;;;;;;;5024074;28;45467;-65
2021/12/12 03:17:43;;;;;;;;;9.33;8.00;;;;;;;;5022526;28;45654;-65
2021/12/12 03:20:23;;;;;;;;;7.67;7.67;;;;;;;;5002645;28;45356;-65
2021/12/12 03:22:48;;;;;;;;;9.67;8.00;;;;;;;;5022524;28;45299;-66
2021/12/12 03:25:14;;;;;;;;;6.67;6.67;;;;;;;;5023934;28;45351;-65
2021/12/12 03:27:39;;;;;;;;;6.00;6.00;;;;;;;;5022160;28;45691;-65
2021/12/12 03:30:05;;;;;;;;;5.33;5.33;;;;;;;;5005499;28;45829;-65
2021/12/12 03:32:32;;;;;;;;;5.67;5.67;;;;;;;;5022576;28;45423;-65
2021/12/12 03:34:58;;;;;;;;;7.33;5.33;;;;;;;;5006039;28;45502;-65
2021/12/12 03:37:25;;;;;;;;;11.00;8.00;;;;;;;;5022268;28;45359;-65
2021/12/12 03:39:52;;;;;;;;;7.33;7.33;;;;;;;;5004937;28;46233;-65
2021/12/12 03:42:19;;;;;;;;;6.00;6.00;;;;;;;;5020891;28;45635;-65
2021/12/12 03:44:45;;;;;;;;;7.33;7.00;;;;;;;;5023542;28;45399;-65
2021/12/12 03:47:13;;;;;;;;;7.33;7.00;;;;;;;;5022218;28;46636;-65
2021/12/12 03:49:38;;;;;;;;;6.67;6.67;;;;;;;;5022924;28;45409;-65
2021/12/12 03:52:05;;;;;;;;;7.00;7.00;;;;;;;;5022182;28;45379;-64
2021/12/12 03:54:30;;;;;;;;;6.00;5.33;;;;;;;;5001901;28;45274;-65
2021/12/12 03:56:56;;;;;;;;;6.00;6.00;;;;;;;;5017951;28;45744;-65
2021/12/12 03:59:21;;;;;;;;;6.67;6.67;;;;;;;;5022735;28;45372;-65
2021/12/12 04:01:48;;;;;;;;;8.00;8.00;;;;;;;;5023034;28;45323;-65
2021/12/12 04:04:17;;;;;;;;;10.33;10.00;;;;;;;;5022457;28;45665;-65
2021/12/12 04:06:42;;;;;;;;;7.67;7.67;;;;;;;;5022919;28;47000;-65
2021/12/12 04:09:09;;;;;;;;;8.00;6.67;;;;;;;;5021772;28;45582;-65
2021/12/12 04:11:36;;;;;;;;;8.33;6.67;;;;;;;;5022719;28;45799;-65
2021/12/12 04:14:03;;;;;;;;;8.67;7.67;;;;;;;;5022173;28;45498;-65
2021/12/12 04:16:29;;;;;;;;;11.00;8.00;;;;;;;;5004880;28;47609;-65
2021/12/12 04:18:55;;;;;;;;;9.00;7.33;;;;;;;;5021521;28;45352;-65
2021/12/12 04:21:21;;;;;;;;;10.00;9.00;;;;;;;;5021493;28;45486;-66
2021/12/12 04:23:46;;;;;;;;;8.00;8.00;;;;;;;;5021337;28;45441;-65
2021/12/12 04:26:15;;;;;;;;;8.00;8.00;;;;;;;;5021436;28;45554;-65
2021/12/12 04:28:40;;;;;;;;;8.00;8.00;;;;;;;;5020507;28;45491;-66
2021/12/12 04:31:05;;;;;;;;;10.33;9.00;;;;;;;;5021564;28;45466;-65
2021/12/12 04:33:31;;;;;;;;;10.00;9.00;;;;;;;;5021259;28;45533;-65
2021/12/12 04:35:56;;;;;;;;;10.33;10.33;;;;;;;;5021244;28;45402;-66
2021/12/12 04:38:22;;;;;;;;;11.33;8.33;;;;;;;;5002728;28;46001;-65
2021/12/12 04:40:48;;;;;;;;;11.00;10.33;;;;;;;;5003338;28;45396;-65
2021/12/12 04:43:13;;;;;;;;;10.00;10.00;;;;;;;;5020729;28;45560;-65
2021/12/12 04:46:07;;;;;;;;;14.67;14.33;;;;;;;;5019921;28;46852;-65
2021/12/12 04:51:42;;;;;;;;;18.00;13.00;;;;;;;;5022255;28;45336;-65
2021/12/12 04:54:12;;;;;;;;;14.00;14.00;;;;;;;;5020478;28;45458;-65
2021/12/12 04:56:40;;;;;;;;;20.00;13.67;;;;;;;;5014150;28;46339;-65
2021/12/12 04:59:10;;;;;;;;;17.33;14.00;;;;;;;;5021143;28;45873;-65
2021/12/12 05:01:46;;;;;;;;;14.00;13.33;;;;;;;;5022261;28;45319;-64
2021/12/12 05:04:20;;;;;;;;;13.67;12.33;;;;;;;;4998171;28;45639;-65
2021/12/12 05:06:49;;;;;;;;;15.00;15.00;;;;;;;;5025464;28;46079;-65
2021/12/12 05:09:18;;;;;;;;;15.67;14.00;;;;;;;;5024433;28;45356;-65
2021/12/12 05:11:49;;;;;;;;;16.67;13.67;;;;;;;;5007437;28;45357;-65
2021/12/12 05:14:22;;;;;;;;;13.33;12.33;;;;;;;;5002680;28;45753;-65
2021/12/12 05:16:51;;;;;;;;;15.00;14.00;;;;;;;;5010804;28;49494;-64
2021/12/12 05:19:21;;;;;;;;;16.00;15.00;;;;;;;;5023857;28;45301;-65
2021/12/12 05:21:47;;;;;;;;;13.67;10.67;;;;;;;;5006727;28;45763;-65
2021/12/12 05:24:13;;;;;;;;;20.67;15.00;;;;;;;;5023584;28;45894;-65
2021/12/12 05:26:52;;;;;;;;;13.33;12.33;;;;;;;;5024304;28;45387;-65
2021/12/12 05:29:20;;;;;;;;;18.67;17.33;;;;;;;;4996132;28;45884;-65
2021/12/12 05:31:46;;;;;;;;;14.00;14.00;;;;;;;;5024541;28;45325;-65
2021/12/12 05:34:12;;;;;;;;;15.00;15.00;;;;;;;;5023605;28;45935;-64
2021/12/12 05:36:38;;;;;;;;;15.33;13.00;;;;;;;;5024151;28;46425;-64
2021/12/12 05:39:04;;;;;;;;;12.67;12.00;;;;;;;;5023104;28;45328;-65
2021/12/12 05:41:29;;;;;;;;;13.00;11.00;;;;;;;;5006289;28;45512;-65
2021/12/12 05:43:56;;;;;;;;;21.67;12.67;;;;;;;;5023447;28;45281;-65
2021/12/12 05:46:23;;;;;;;;;14.00;12.67;;;;;;;;5006251;28;47137;-65
2021/12/12 05:48:49;;;;;;;;;16.00;10.67;;;;;;;;5023514;28;45436;-65
2021/12/12 05:51:16;;;;;;;;;15.33;12.67;;;;;;;;5025004;28;45465;-65
2021/12/12 05:53:41;;;;;;;;;14.67;11.67;;;;;;;;5024296;28;45443;-65
2021/12/12 05:56:07;;;;;;;;;17.67;14.67;;;;;;;;5012859;28;45330;-65
2021/12/12 05:58:33;;;;;;;;;16.67;15.00;;;;;;;;5019873;28;45360;-65
2021/12/12 06:01:00;;;;;;;;;14.00;14.00;;;;;;;;5017761;28;45426;-65
2021/12/12 06:03:27;;;;;;;;;17.67;15.00;;;;;;;;5006138;28;45503;-65
2021/12/12 06:05:53;;;;;;;;;22.00;13.33;;;;;;;;5023836;28;45433;-65
2021/12/12 06:08:20;;;;;;;;;19.33;18.33;;;;;;;;5017610;28;45489;-65
2021/12/12 06:10:45;;;;;;;;;22.00;18.33;;;;;;;;5019930;28;45414;-65
2021/12/12 06:13:12;;;;;;;;;14.00;14.00;;;;;;;;5018282;28;45587;-65
2021/12/12 06:15:38;;;;;;;;;17.00;14.67;;;;;;;;5006091;28;47443;-65
2021/12/12 06:18:03;;;;;;;;;17.33;15.00;;;;;;;;5002491;28;45388;-65
2021/12/12 06:20:29;;;;;;;;;19.33;14.33;;;;;;;;5022832;28;45383;-68
2021/12/12 06:22:55;;;;;;;;;16.67;14.00;;;;;;;;5023548;28;45618;-65
2021/12/12 06:25:20;;;;;;;;;13.00;13.00;;;;;;;;5006168;28;47384;-66
2021/12/12 06:27:45;;;;;;;;;5.67;3.00;;;;;;;;5003872;28;45679;-65
2021/12/12 06:30:13;;;;;;;;;12.33;12.33;;;;;;;;5021153;28;45212;-65
2021/12/12 06:32:39;;;;;;;;;9.33;9.33;;;;;;;;5005648;28;46008;-66
2021/12/12 06:35:05;;;;;;;;;14.67;11.33;;;;;;;;5022533;28;47016;-65
2021/12/12 06:37:31;;;;;;;;;12.33;10.00;;;;;;;;5023139;28;45361;-66
2021/12/12 06:39:56;;;;;;;;;14.67;11.33;;;;;;;;5024298;28;45471;-66
2021/12/12 06:42:22;;;;;;;;;15.67;13.67;;;;;;;;5023082;28;45561;-66
2021/12/12 06:44:47;;;;;;;;;10.67;10.67;;;;;;;;5023907;28;45403;-66
2021/12/12 06:47:14;;;;;;;;;13.33;11.00;;;;;;;;5021003;28;45375;-67
2021/12/12 06:49:39;;;;;;;;;12.00;10.67;;;;;;;;5015483;28;45522;-66
2021/12/12 06:52:07;;;;;;;;;15.67;11.00;;;;;;;;5023484;28;45146;-66
2021/12/12 06:54:32;;;;;;;;;9.67;9.33;;;;;;;;5023757;28;45649;-66
2021/12/12 06:56:59;;;;;;;;;11.33;9.00;;;;;;;;5023066;28;45482;-66
2021/12/12 06:59:26;;;;;;;;;13.67;11.67;;;;;;;;5023475;28;45383;-66
2021/12/12 07:01:52;;;;;;;;;12.67;12.67;;;;;;;;5024398;28;45406;-65
2021/12/12 07:04:19;;;;;;;;;15.33;10.00;;;;;;;;5022454;28;45370;-66
2021/12/12 07:06:44;;;;;;;;;15.00;13.00;;;;;;;;5006021;28;45351;-66
2021/12/12 07:09:10;;;;;;;;;17.33;12.33;;;;;;;;5022882;28;45720;-66
2021/12/12 07:11:36;;;;;;;;;15.33;13.00;;;;;;;;5024002;28;45511;-66
2021/12/12 07:14:01;;;;;;;;;9.33;9.33;;;;;;;;5005034;28;47072;-66
2021/12/12 07:16:27;;;;;;;;;17.33;15.33;;;;;;;;5023558;28;45236;-66
2021/12/12 07:18:54;;;;;;;;;14.00;12.33;;;;;;;;5022432;28;45513;-66
2021/12/12 07:21:19;;;;;;;;;15.00;10.33;;;;;;;;5021786;28;45525;-66
2021/12/12 07:23:49;;;;;;;;;15.33;14.00;;;;;;;;5022288;28;46580;-66
2021/12/12 07:26:15;;;;;;;;;14.67;11.00;;;;;;;;5023023;28;45448;-66
2021/12/12 07:28:41;;;;;;;;;16.67;14.33;;;;;;;;5022137;28;45425;-66
2021/12/12 07:31:09;;;;;;;;;23.00;14.67;;;;;;;;5023744;28;45489;-67
2021/12/12 07:33:35;;;;;;;;;13.33;11.33;;;;;;;;5022508;28;45478;-66
2021/12/12 07:36:01;;;;;;;;;19.33;14.00;;;;;;;;5023018;28;45407;-65
2021/12/12 07:38:28;;;;;;;;;13.67;13.67;;;;;;;;4999593;28;45312;-65
2021/12/12 07:40:54;;;;;;;;;15.33;13.00;;;;;;;;5005571;28;45694;-65
2021/12/12 07:43:20;;;;;;;;;11.33;10.00;;;;;;;;5003958;28;47366;-65
2021/12/12 07:45:46;;;;;;;;;16.00;13.67;;;;;;;;5022846;28;45384;-66
2021/12/12 07:48:12;;;;;;;;;10.67;9.33;;;;;;;;5022394;28;45327;-65
2021/12/12 07:50:38;;;;;;;;;12.67;9.00;;;;;;;;5023456;28;45360;-65
2021/12/12 07:53:04;;;;;;;;;16.00;14.33;;;;;;;;5022236;28;45665;-66
2021/12/12 07:55:30;;;;;;;;;14.33;10.00;;;;;;;;5015035;28;45268;-66
2021/12/12 07:57:55;;;;;;;;;16.00;10.67;;;;;;;;5021706;28;45316;-65
2021/12/12 08:00:22;;;;;;;;;15.00;11.00;;;;;;;;5023384;28;45307;-66
2021/12/12 08:02:48;;;;;;;;;14.67;12.67;;;;;;;;5022183;28;45404;-66
2021/12/12 08:05:14;;;;;;;;;11.67;9.67;;;;;;;;5022540;28;45399;-66
2021/12/12 08:07:40;;;;;;;;;13.67;11.00;;;;;;;;5022053;28;45434;-66
2021/12/12 08:10:07;;;;;;;;;10.00;8.67;;;;;;;;5022863;28;45541;-66
2021/12/12 08:12:32;;;;;;;;;10.33;8.33;;;;;;;;5002762;28;47209;-66
2021/12/12 08:14:58;;;;;;;;;12.00;11.67;;;;;;;;5022568;28;45410;-66
2021/12/12 08:17:24;;;;;;;;;15.33;12.33;;;;;;;;5022091;28;45463;-65
2021/12/12 08:19:50;;;;;;;;;4.33;4.33;;;;;;;;5023143;28;45557;-66
2021/12/12 08:22:15;;;;;;;;;12.67;9.67;;;;;;;;5021959;28;45403;-67
2021/12/12 08:24:41;;;;;;;;;10.00;10.00;;;;;;;;5022440;28;45245;-66
2021/12/12 08:27:08;;;;;;;;;10.00;8.00;;;;;;;;5003745;28;45468;-66
2021/12/12 08:29:34;;;;;;;;;6.33;4.67;;;;;;;;5022593;28;45424;-66
2021/12/12 08:31:59;;;;;;;;;10.33;9.00;;;;;;;;5021939;28;45546;-66
2021/12/12 08:34:25;;;;;;;;;12.33;9.67;;;;;;;;5021411;28;45402;-66
2021/12/12 08:36:52;;;;;;;;;14.33;10.00;;;;;;;;5022565;28;45241;-66
2021/12/12 08:39:17;;;;;;;;;11.33;11.00;;;;;;;;5021996;28;45641;-66
2021/12/12 08:41:44;;;;;;;;;11.00;10.00;;;;;;;;5025540;28;45487;-66
2021/12/12 08:44:10;;;;;;;;;8.33;8.00;;;;;;;;5003970;28;45916;-66
2021/12/12 08:46:37;;;;;;;;;8.00;5.33;;;;;;;;5026087;28;45415;-66
2021/12/12 08:49:03;;;;;;;;;15.00;10.00;;;;;;;;5001816;28;45568;-65
2021/12/12 08:51:32;;;;;;;;;8.67;7.33;;;;;;;;5007529;28;46988;-66
2021/12/12 08:54:02;;;;;;;;;7.33;5.00;;;;;;;;5024871;28;45473;-66
2021/12/12 08:56:41;;;;;;;;;8.33;8.00;;;;;;;;5017592;28;45402;-66
2021/12/12 08:59:08;;;;;;;;;11.00;11.00;;;;;;;;5001657;28;45890;-66
2021/12/12 09:01:33;;;;;;;;;9.33;8.33;;;;;;;;5025581;28;46795;-66
2021/12/12 09:03:59;;;;;;;;;9.00;9.00;;;;;;;;5024706;28;45488;-66
2021/12/12 09:06:30;;;;;;;;;11.00;10.33;;;;;;;;5025525;28;45512;-67
2021/12/12 09:09:00;;;;;;;;;12.33;9.33;;;;;;;;5001887;28;45451;-66
2021/12/12 09:11:44;;;;;;;;;12.33;9.67;;;;;;;;5024916;28;45598;-66
2021/12/12 09:14:09;;;;;;;;;17.33;13.33;;;;;;;;5006537;28;45332;-66
2021/12/12 09:16:43;;;;;;;;;10.67;10.67;;;;;;;;5007592;28;45584;-66
2021/12/12 09:19:12;;;;;;;;;10.67;10.67;;;;;;;;5025100;28;45402;-66
2021/12/12 09:21:50;;;;;;;;;11.67;8.33;;;;;;;;5025144;28;45573;-66
2021/12/12 09:24:24;;;;;;;;;10.33;9.33;;;;;;;;5006177;28;45395;-66
2021/12/12 09:26:51;;;;;;;;;9.00;9.00;;;;;;;;5007370;28;45443;-66
2021/12/12 09:29:19;;;;;;;;;9.00;9.00;;;;;;;;5024461;28;45296;-66
2021/12/12 09:32:03;;;;;;;;;13.67;10.00;;;;;;;;5025169;28;45455;-66
2021/12/12 09:34:38;;;;;;;;;14.33;11.33;;;;;;;;5024756;28;45375;-66
2021/12/12 09:37:29;;;;;;;;;11.00;8.00;;;;;;;;5024663;28;45334;-66
2021/12/12 09:40:01;;;;;;;;;13.67;10.67;;;;;;;;5001131;28;45193;-66
2021/12/12 09:42:36;;;;;;;;;12.00;9.33;;;;;;;;5023812;28;46409;-66
2021/12/12 09:45:27;;;;;;;;;12.00;10.33;;;;;;;;5021230;28;45320;-66
2021/12/12 09:48:03;;;;;;;;;8.00;8.00;;;;;;;;5024208;28;45749;-66
2021/12/12 09:53:47;;;;;;;;;9.00;9.00;;;;;;;;5023333;28;45475;-66
2021/12/12 09:56:18;;;;;;;;;10.00;9.00;;;;;;;;5016495;28;45438;-66
2021/12/12 09:58:48;;;;;;;;;12.00;10.33;;;;;;;;4998415;28;45402;-66
2021/12/12 10:01:19;;;;;;;;;9.33;9.33;;;;;;;;5007127;28;45627;-66
2021/12/12 10:03:45;;;;;;;;;12.00;11.33;;;;;;;;5023255;28;45704;-66
2021/12/12 10:06:16;;;;;;;;;8.00;7.67;;;;;;;;5006594;28;45707;-66
2021/12/12 10:08:56;;;;;;;;;10.00;10.00;;;;;;;;5023624;28;45419;-66
2021/12/12 10:11:26;;;;;;;;;5.33;5.33;;;;;;;;5024294;28;45623;-66
2021/12/12 10:14:00;;;;;;;;;5.00;5.00;;;;;;;;5001264;28;47331;-67
2021/12/12 10:16:33;;;;;;;;;10.33;10.33;;;;;;;;5024467;28;45368;-67
2021/12/12 10:19:25;;;;;;;;;12.33;10.33;;;;;;;;5004524;28;45265;-67
2021/12/12 10:22:05;;;;;;;;;10.00;9.33;;;;;;;;5008712;28;45410;-67
2021/12/12 10:24:33;;;;;;;;;9.67;9.00;;;;;;;;5023683;28;45280;-67
2021/12/12 10:27:22;;;;;;;;;14.33;11.67;;;;;;;;5023629;28;45347;-67
2021/12/12 10:29:53;;;;;;;;;12.67;10.00;;;;;;;;5013983;28;45662;-67
2021/12/12 10:32:21;;;;;;;;;11.33;10.67;;;;;;;;5023909;28;45446;-67
2021/12/12 10:34:51;;;;;;;;;12.67;11.00;;;;;;;;5019336;28;45577;-67
2021/12/12 10:37:47;;;;;;;;;10.00;9.00;;;;;;;;5023431;28;45430;-67
2021/12/12 10:40:15;;;;;;;;;14.33;11.00;;;;;;;;4993479;28;45320;-67
2021/12/12 10:42:46;;;;;;;;;15.00;11.33;;;;;;;;5023354;28;45376;-67
2021/12/12 10:45:17;;;;;;;;;11.33;10.67;;;;;;;;5023433;28;45345;-67
2021/12/12 10:47:42;;;;;;;;;14.67;12.00;;;;;;;;5022857;28;45533;-67
2021/12/12 10:50:13;;;;;;;;;12.00;11.00;;;;;;;;5002440;28;45198;-67
2021/12/12 10:52:48;;;;;;;;;9.33;8.33;;;;;;;;4992721;28;45245;-67
2021/12/12 10:55:17;;;;;;;;;17.33;14.00;;;;;;;;5015525;28;45429;-68
2021/12/12 10:57:44;;;;;;;;;11.00;11.00;;;;;;;;5022359;28;45544;-67
2021/12/12 11:00:15;;;;;;;;;14.33;11.00;;;;;;;;5023593;28;45390;-67
2021/12/12 11:02:55;;;;;;;;;12.67;12.67;;;;;;;;5022220;28;45697;-68
2021/12/12 11:05:24;;;;;;;;;11.67;9.33;;;;;;;;5023447;28;45439;-68
2021/12/12 11:07:53;;;;;;;;;13.00;8.67;;;;;;;;5004813;28;45791;-67
2021/12/12 11:10:18;;;;;;;;;10.00;10.00;;;;;;;;5023359;28;45366;-69
2021/12/12 11:12:45;;;;;;;;;24.33;19.33;;;;;;;;5003528;28;45190;-67
2021/12/12 11:15:13;;;;;;;;;14.33;12.00;;;;;;;;5023382;28;46693;-67
2021/12/12 11:17:40;;;;;;;;;12.67;11.33;;;;;;;;5022441;28;45401;-68
2021/12/12 11:20:19;;;;;;;;;15.67;15.33;;;;;;;;5020520;28;45451;-67
2021/12/12 11:22:47;;;;;;;;;63.25;47.25;;;;;;;;5022750;28;45317;-67
2021/12/12 11:25:18;;;;;;;;;70.50;54.75;;;;;;;;5023248;28;45409;-67
2021/12/12 11:27:50;;;;;;;;;22.67;21.00;;;;;;;;5021783;28;45406;-68
2021/12/12 11:30:21;;;;;;;;;14.00;11.00;;;;;;;;5023276;28;45279;-67
2021/12/12 11:32:49;;;;;;;;;10.00;10.00;;;;;;;;5021043;28;45275;-67
2021/12/12 11:35:17;;;;;;;;;9.67;8.67;;;;;;;;5023025;28;45419;-67
2021/12/12 11:37:58;;;;;;;;;15.33;15.33;;;;;;;;5019129;28;45307;-67
2021/12/12 11:40:31;;;;;;;;;15.33;14.67;;;;;;;;5022812;28;45541;-67
2021/12/12 11:42:56;;;;;;;;;9.67;9.67;;;;;;;;5022598;28;45463;-67
2021/12/12 11:45:25;;;;;;;;;9.33;9.33;;;;;;;;5002883;28;47073;-68
2021/12/12 11:48:11;;;;;;;;;8.00;8.00;;;;;;;;5022416;28;45361;-67
2021/12/12 11:50:41;;;;;;;;;22.00;21.33;;;;;;;;5020611;28;45294;-68
2021/12/12 11:53:25;;;;;;;;;14.33;14.33;;;;;;;;4998883;28;45281;-67
2021/12/12 11:55:59;;;;;;;;;10.00;10.00;;;;;;;;5017137;28;45269;-67
2021/12/12 11:58:56;;;;;;;;;13.33;12.00;;;;;;;;5021826;28;45576;-67
2021/12/12 12:01:22;;;;;;;;;62.25;50.25;;;;;;;;4989485;28;45504;-67
2021/12/12 12:04:19;;;;;;;;;17.33;15.67;;;;;;;;5022226;28;45632;-68
2021/12/12 12:07:03;;;;;;;;;82.00;64.50;;;;;;;;4988753;28;46545;-68
2021/12/12 12:09:35;;;;;;;;;106.50;95.00;;;;;;;;5022193;28;45419;-68
2021/12/12 12:12:02;;;;;;;;;64.75;50.75;;;;;;;;5009634;28;45241;-68
2021/12/12 12:14:40;;;;;;;;;21.00;16.33;;;;;;;;5022483;28;45632;-68
2021/12/12 12:17:14;;;;;;;;;17.00;14.00;;;;;;;;5003957;28;47537;-67
2021/12/12 12:19:58;;;;;;;;;13.00;12.33;;;;;;;;5021850;28;45344;-68
2021/12/12 12:22:47;;;;;;;;;13.67;11.00;;;;;;;;5021988;28;45625;-66
2021/12/12 12:25:40;;;;;;;;;13.67;12.00;;;;;;;;5020807;28;45391;-67
2021/12/12 12:28:08;;;;;;;;;9.00;8.67;;;;;;;;5021100;28;45469;-67
2021/12/12 12:30:52;;;;;;;;;18.00;18.00;;;;;;;;5022308;28;45394;-67
2021/12/12 12:33:17;;;;;;;;;24.00;24.00;;;;;;;;5021674;28;45481;-67
2021/12/12 12:36:05;;;;;;;;;48.00;39.25;;;;;;;;5022666;28;45479;-67
2021/12/12 12:38:49;;;;;;;;;35.33;33.33;;;;;;;;4992876;28;45561;-67
2021/12/12 12:41:14;;;;;;;;;34.67;31.67;;;;;;;;5011531;28;45289;-67
2021/12/12 12:43:59;;;;;;;;;15.33;14.33;;;;;;;;5021777;28;45409;-67
2021/12/12 12:46:43;;;;;;;;;11.33;10.33;;;;;;;;5021498;28;45305;-67
2021/12/12 12:49:27;;;;;;;;;11.33;11.00;;;;;;;;5021312;28;45264;-67
2021/12/12 12:52:10;;;;;;;;;17.00;16.00;;;;;;;;5020893;28;45415;-67
2021/12/12 12:54:38;;;;;;;;;35.50;33.00;;;;;;;;5016101;28;45387;-67
2021/12/12 12:57:09;;;;;;;;;16.33;15.33;;;;;;;;5017400;28;45463;-67
2021/12/12 12:59:51;;;;;;;;;15.00;13.00;;;;;;;;5021587;28;45542;-67
2021/12/12 13:02:16;;;;;;;;;27.67;23.67;;;;;;;;5021304;28;45454;-67
2021/12/12 13:05:01;;;;;;;;;73.00;52.75;;;;;;;;5003922;28;45448;-67
2021/12/12 13:07:45;;;;;;;;;46.00;38.67;;;;;;;;5021761;28;45229;-66
2021/12/12 13:10:13;;;;;;;;;14.67;11.00;;;;;;;;5019865;28;45420;-67
2021/12/12 13:12:57;;;;;;;;;12.67;12.00;;;;;;;;5020536;28;45386;-67
2021/12/12 13:15:25;;;;;;;;;13.00;11.33;;;;;;;;4995521;28;45400;-67
2021/12/12 13:17:57;;;;;;;;;9.00;8.67;;;;;;;;5002687;28;45414;-67
2021/12/12 13:20:41;;;;;;;;;57.50;42.75;;;;;;;;5021378;28;45491;-68
2021/12/12 13:23:07;;;;;;;;;13.00;12.67;;;;;;;;5020712;28;45391;-68
2021/12/12 13:25:40;;;;;;;;;10.00;9.67;;;;;;;;5022698;28;45382;-69
2021/12/12 13:28:19;;;;;;;;;8.00;8.00;;;;;;;;5005141;28;45398;-68
2021/12/12 13:30:58;;;;;;;;;11.67;9.00;;;;;;;;5022596;28;46383;-68
2021/12/12 13:33:29;;;;;;;;;11.00;11.00;;;;;;;;5024038;28;45451;-68
2021/12/12 13:36:14;;;;;;;;;15.33;13.67;;;;;;;;5024810;28;45249;-68
2021/12/12 13:38:45;;;;;;;;;6.33;6.33;;;;;;;;4999711;28;45499;-67
2021/12/12 13:41:10;;;;;;;;;9.67;9.00;;;;;;;;5024535;28;47036;-70
2021/12/12 13:43:47;;;;;;;;;12.33;8.67;;;;;;;;5023925;28;45346;-68
2021/12/12 13:46:12;;;;;;;;;19.33;16.67;;;;;;;;5016037;28;45454;-67
2021/12/12 13:48:53;;;;;;;;;8.33;8.33;;;;;;;;5024528;28;45359;-67
2021/12/12 13:51:38;;;;;;;;;6.67;6.33;;;;;;;;5024830;28;46461;-67
2021/12/12 13:54:24;;;;;;;;;10.67;10.67;;;;;;;;5000555;28;45423;-67
2021/12/12 13:56:55;;;;;;;;;8.33;8.33;;;;;;;;5018211;28;45371;-67
2021/12/12 13:59:26;;;;;;;;;10.67;8.00;;;;;;;;5024269;28;45645;-67
2021/12/12 14:01:59;;;;;;;;;8.00;8.00;;;;;;;;4997405;28;47944;-68
2021/12/12 14:04:32;;;;;;;;;9.33;7.33;;;;;;;;5022865;28;45407;-67
2021/12/12 14:06:57;;;;;;;;;10.00;10.00;;;;;;;;5024043;28;45439;-67
2021/12/12 14:09:26;;;;;;;;;11.67;9.33;;;;;;;;5001391;28;45688;-67
2021/12/12 14:11:54;;;;;;;;;10.67;8.00;;;;;;;;5024084;28;45590;-67
2021/12/12 14:14:23;;;;;;;;;8.00;6.33;;;;;;;;5001849;28;45469;-67
2021/12/12 14:16:51;;;;;;;;;10.33;9.00;;;;;;;;5023219;28;45476;-67
2021/12/12 14:19:32;;;;;;;;;10.00;10.00;;;;;;;;5006028;28;45497;-67
2021/12/12 14:21:58;;;;;;;;;7.33;6.00;;;;;;;;5012078;28;45408;-67
2021/12/12 14:24:24;;;;;;;;;7.67;6.67;;;;;;;;5022863;28;45584;-67
2021/12/12 14:26:50;;;;;;;;;11.00;9.00;;;;;;;;5024094;28;45453;-67
2021/12/12 14:29:18;;;;;;;;;10.33;9.00;;;;;;;;5023007;28;45323;-67
2021/12/12 14:31:56;;;;;;;;;12.33;10.67;;;;;;;;5022689;28;48316;-67
2021/12/12 14:34:37;;;;;;;;;11.67;11.00;;;;;;;;5023112;28;45438;-67
2021/12/12 14:37:04;;;;;;;;;17.00;15.00;;;;;;;;5023062;28;45418;-67
2021/12/12 14:39:31;;;;;;;;;10.33;10.00;;;;;;;;5023788;28;45453;-67
2021/12/12 14:41:59;;;;;;;;;13.00;9.33;;;;;;;;5023930;28;45375;-67
2021/12/12 14:44:30;;;;;;;;;9.67;6.67;;;;;;;;5022754;28;45365;-67
2021/12/12 14:47:00;;;;;;;;;9.00;9.00;;;;;;;;5024265;28;45455;-68
2021/12/12 14:49:33;;;;;;;;;6.33;6.33;;;;;;;;5023226;28;45571;-67
2021/12/12 14:52:09;;;;;;;;;10.00;8.33;;;;;;;;5023773;28;45413;-66
2021/12/12 14:54:38;;;;;;;;;10.33;7.67;;;;;;;;5018755;28;46613;-67
2021/12/12 14:57:05;;;;;;;;;8.67;7.67;;;;;;;;5020357;28;45371;-67
2021/12/12 14:59:32;;;;;;;;;8.00;6.33;;;;;;;;5023297;28;45422;-67
2021/12/12 15:02:02;;;;;;;;;10.67;8.33;;;;;;;;5021730;28;47098;-67